• Join FlightAware (Why Join?)
  • Login
  • US Flag 
04:02AM EDT


 

Airport Tracker/Info


-or-


 

Live Flight TrackerFlight Track Log ✈ N102VU ✈ 19-Aug-2013 ✈ TN35 - KTHA

Flight Track Log - Related Links

Times and Time Zones

All times are in EDT time to prevent confusion due to time zone crossing. See the N102VU flight status page for this flight to view local times or setup timezone preferences in your user account.

Time Position Orientation Groundspeed Altitude Reporting Facility
EDT Latitude Longitude Course Direction KTS MPH feet Rate Location/Type
08:30PM 36.1333 -86.8000 270° West 88 101 1,000  Level Nashville TRACON
08:32PM 36.1333 -86.8333 270° West 103 119 2,200 780 Climbing Nashville TRACON
08:33PM 36.1103 -86.8244 163° South 58 67 3,000 300 Climbing Memphis Center
08:34PM 36.0867 -86.8022 143° Southeast 89 102 2,900 -60 Descending Memphis Center
08:35PM 36.0589 -86.7778 145° Southeast 114 131 2,900  Level Memphis Center
08:36PM 36.0353 -86.7558 143° Southeast 120 138 2,900  Level Memphis Center
08:37PM 36.0097 -86.7314 142° Southeast 120 138 3,000  Climbing Memphis Center
08:38PM 35.9839 -86.7094 145° Southeast 120 138 2,900  Descending Memphis Center
08:39PM 35.9583 -86.6847 142° Southeast 128 147 3,000  Climbing Memphis Center
08:40PM 35.9325 -86.6603 143° Southeast 128 147 3,000  Level Memphis Center
08:41PM 35.9047 -86.6358 145° Southeast 128 147 3,000  Level Memphis Center
08:42PM 35.8789 -86.6114 143° Southeast 122 140 3,000  Level Memphis Center
08:43PM 35.8489 -86.5847 144° Southeast 122 140 3,000 180 Level Memphis Center
08:44PM 35.8272 -86.5628 141° Southeast 117 135 3,400 180 Climbing Memphis Center
08:45PM 35.8136 -86.5250 114° Southeast 112 129 3,400  Level Memphis Center
08:46PM 35.7958 -86.4925 124° Southeast 112 129 3,400  Level Memphis Center
08:47PM 35.7803 -86.4572 119° Southeast 117 135 3,400  Level Memphis Center
08:48PM 35.7625 -86.4250 124° Southeast 117 135 3,400  Level Memphis Center
08:49PM 35.7469 -86.3900 119° Southeast 122 140 3,400  Level Memphis Center
08:50PM 35.7311 -86.3575 121° Southeast 122 140 3,400  Level Memphis Center
08:51PM 35.7133 -86.3225 122° Southeast 122 140 3,400  Level Memphis Center
08:52PM 35.6956 -86.2850 120° Southeast 122 140 3,400  Level Memphis Center
08:53PM 35.6800 -86.2578 125° Southeast 122 140 3,500  Climbing Memphis Center
08:54PM 35.6642 -86.2175 116° Southeast 117 135 3,400 -60 Descending Memphis Center
08:55PM 35.6464 -86.1853 124° Southeast 117 135 3,400  Level Memphis Center
08:56PM 35.6286 -86.1528 124° Southeast 122 140 3,400  Level Memphis Center
08:57PM 35.6116 -86.1213 124° Southeast  Level FlightAware Approximate
08:57PM 35.6106 -86.1131 124° Southeast 122 140 3,400  Level Memphis Center
08:58PM 35.5786 -86.0967 157° South 122 140 3,400  Level Memphis Center
08:59PM 35.5469 -86.0806 158° South 122 140 3,400  Level Memphis Center
09:00PM 35.5172 -86.0692 163° South 122 140 3,400  Level Memphis Center
09:01PM 35.4856 -86.0556 161° South 117 135 3,400  Level Memphis Center
09:02PM 35.4658 -86.0897 235° Southwest 107 123 3,400  Level Memphis Center